sensor_id;sensor_type;location;lat;lon;timestamp;pressure;altitude;pressure_sealevel;temperature
73673;BMP280;61972;19.480;-99.240;2022-09-30T00:01:03;77846.53;;;26.21
73673;BMP280;61972;19.480;-99.240;2022-09-30T00:03:29;77851.63;;;26.18
73673;BMP280;61972;19.480;-99.240;2022-09-30T00:06:00;77852.53;;;26.17
73673;BMP280;61972;19.480;-99.240;2022-09-30T00:08:26;77859.84;;;26.16
73673;BMP280;61972;19.480;-99.240;2022-09-30T00:11:22;77866.59;;;26.15
73673;BMP280;61972;19.480;-99.240;2022-09-30T00:13:48;77861.75;;;26.13
73673;BMP280;61972;19.480;-99.240;2022-09-30T00:16:15;77865.88;;;26.12
73673;BMP280;61972;19.480;-99.240;2022-09-30T00:18:43;77863.63;;;26.10
73673;BMP280;61972;19.480;-99.240;2022-09-30T00:21:11;77873.00;;;26.09
73673;BMP280;61972;19.480;-99.240;2022-09-30T00:23:38;77869.25;;;26.08
73673;BMP280;61972;19.480;-99.240;2022-09-30T00:26:09;77876.00;;;26.07
73673;BMP280;61972;19.480;-99.240;2022-09-30T00:28:36;77878.06;;;26.07
73673;BMP280;61972;19.480;-99.240;2022-09-30T00:31:06;77880.13;;;26.06
73673;BMP280;61972;19.480;-99.240;2022-09-30T00:33:33;77881.66;;;26.05
73673;BMP280;61972;19.480;-99.240;2022-09-30T00:36:00;77887.25;;;26.03
73673;BMP280;61972;19.480;-99.240;2022-09-30T00:38:26;77889.88;;;26.03
73673;BMP280;61972;19.480;-99.240;2022-09-30T00:40:53;77897.72;;;26.03
73673;BMP280;61972;19.480;-99.240;2022-09-30T00:46:04;77901.88;;;26.02
73673;BMP280;61972;19.480;-99.240;2022-09-30T00:48:36;77904.28;;;25.99
73673;BMP280;61972;19.480;-99.240;2022-09-30T00:51:05;77914.22;;;25.99
73673;BMP280;61972;19.480;-99.240;2022-09-30T00:53:47;77919.47;;;25.99
73673;BMP280;61972;19.480;-99.240;2022-09-30T00:56:26;77913.09;;;25.98
73673;BMP280;61972;19.480;-99.240;2022-09-30T00:59:11;77914.59;;;25.97
73673;BMP280;61972;19.480;-99.240;2022-09-30T01:01:40;77916.66;;;25.96
73673;BMP280;61972;19.480;-99.240;2022-09-30T01:04:15;77922.84;;;25.95
73673;BMP280;61972;19.480;-99.240;2022-09-30T01:06:43;77922.84;;;25.95
73673;BMP280;61972;19.480;-99.240;2022-09-30T01:09:09;77926.41;;;25.93
73673;BMP280;61972;19.480;-99.240;2022-09-30T01:11:36;77937.84;;;25.92
73673;BMP280;61972;19.480;-99.240;2022-09-30T01:14:07;77935.59;;;25.90
73673;BMP280;61972;19.480;-99.240;2022-09-30T01:16:47;77939.72;;;25.89
73673;BMP280;61972;19.480;-99.240;2022-09-30T01:25:01;77936.91;;;25.86
73673;BMP280;61972;19.480;-99.240;2022-09-30T01:41:02;77950.59;;;25.79
73673;BMP280;61972;19.480;-99.240;2022-09-30T01:44:05;77953.03;;;25.77
73673;BMP280;61972;19.480;-99.240;2022-09-30T01:47:11;77956.22;;;25.77
73673;BMP280;61972;19.480;-99.240;2022-09-30T01:49:43;77953.97;;;25.75
73673;BMP280;61972;19.480;-99.240;2022-09-30T01:52:20;77965.38;;;25.74
73673;BMP280;61972;19.480;-99.240;2022-09-30T01:55:12;77960.00;;;25.71
73673;BMP280;61972;19.480;-99.240;2022-09-30T01:57:54;77958.47;;;25.72
73673;BMP280;61972;19.480;-99.240;2022-09-30T02:00:26;77965.22;;;25.71
73673;BMP280;61972;19.480;-99.240;2022-09-30T02:02:55;77971.94;;;25.70
73673;BMP280;61972;19.480;-99.240;2022-09-30T02:08:50;77979.06;;;25.67
73673;BMP280;61972;19.480;-99.240;2022-09-30T02:11:24;77974.41;;;25.68
73673;BMP280;61972;19.480;-99.240;2022-09-30T02:16:59;77984.28;;;25.67
73673;BMP280;61972;19.480;-99.240;2022-09-30T02:19:21;77984.13;;;25.64
73673;BMP280;61972;19.480;-99.240;2022-09-30T02:21:56;77978.91;;;25.64
73673;BMP280;61972;19.480;-99.240;2022-09-30T02:24:26;77982.44;;;25.63
73673;BMP280;61972;19.480;-99.240;2022-09-30T02:26:56;77987.69;;;25.63
73673;BMP280;61972;19.480;-99.240;2022-09-30T02:29:28;77993.31;;;25.61
73673;BMP280;61972;19.480;-99.240;2022-09-30T02:32:00;77989.19;;;25.62
73673;BMP280;61972;19.480;-99.240;2022-09-30T02:34:35;77992.72;;;25.60
73673;BMP280;61972;19.480;-99.240;2022-09-30T02:37:13;77994.78;;;25.60
73673;BMP280;61972;19.480;-99.240;2022-09-30T02:40:18;78000.97;;;25.58
73673;BMP280;61972;19.480;-99.240;2022-09-30T02:42:46;78005.63;;;25.58
73673;BMP280;61972;19.480;-99.240;2022-09-30T02:45:16;77998.16;;;25.56
73673;BMP280;61972;19.480;-99.240;2022-09-30T02:50:43;78009.00;;;25.54
73673;BMP280;61972;19.480;-99.240;2022-09-30T02:58:35;78014.63;;;25.52
73673;BMP280;61972;19.480;-99.240;2022-09-30T03:01:06;78017.63;;;25.50
73673;BMP280;61972;19.480;-99.240;2022-09-30T03:06:05;78013.91;;;25.49
73673;BMP280;61972;19.480;-99.240;2022-09-30T03:08:31;78020.63;;;25.47
73673;BMP280;61972;19.480;-99.240;2022-09-30T03:10:58;78018.97;;;25.46
73673;BMP280;61972;19.480;-99.240;2022-09-30T03:13:39;78021.00;;;25.45
73673;BMP280;61972;19.480;-99.240;2022-09-30T03:16:14;78032.94;;;25.44
73673;BMP280;61972;19.480;-99.240;2022-09-30T03:19:12;78035.41;;;25.42
73673;BMP280;61972;19.480;-99.240;2022-09-30T03:27:47;78041.94;;;25.38
73673;BMP280;61972;19.480;-99.240;2022-09-30T03:30:23;78032.63;;;25.39
73673;BMP280;61972;19.480;-99.240;2022-09-30T03:38:04;78039.72;;;25.36
73673;BMP280;61972;19.480;-99.240;2022-09-30T03:41:14;78039.16;;;25.36
73673;BMP280;61972;19.480;-99.240;2022-09-30T03:44:04;78038.97;;;25.33
73673;BMP280;61972;19.480;-99.240;2022-09-30T03:47:02;78027.75;;;25.30
73673;BMP280;61972;19.480;-99.240;2022-09-30T03:49:33;78023.09;;;25.31
73673;BMP280;61972;19.480;-99.240;2022-09-30T03:52:05;78029.84;;;25.30
73673;BMP280;61972;19.480;-99.240;2022-09-30T03:54:32;78028.69;;;25.28
73673;BMP280;61972;19.480;-99.240;2022-09-30T03:57:05;78030.19;;;25.27
73673;BMP280;61972;19.480;-99.240;2022-09-30T03:59:31;78031.16;;;25.26
73673;BMP280;61972;19.480;-99.240;2022-09-30T04:01:58;78038.41;;;25.25
73673;BMP280;61972;19.480;-99.240;2022-09-30T04:04:24;78032.06;;;25.24
73673;BMP280;61972;19.480;-99.240;2022-09-30T04:06:55;78034.13;;;25.24
73673;BMP280;61972;19.480;-99.240;2022-09-30T04:09:47;78033.03;;;25.23
73673;BMP280;61972;19.480;-99.240;2022-09-30T04:12:39;78039.75;;;25.22
73673;BMP280;61972;19.480;-99.240;2022-09-30T04:15:08;78031.88;;;25.22
73673;BMP280;61972;19.480;-99.240;2022-09-30T04:17:34;78039.75;;;25.22
73673;BMP280;61972;19.480;-99.240;2022-09-30T04:20:00;78034.50;;;25.22
73673;BMP280;61972;19.480;-99.240;2022-09-30T04:22:49;78031.69;;;25.19
73673;BMP280;61972;19.480;-99.240;2022-09-30T04:25:27;78031.16;;;25.19
73673;BMP280;61972;19.480;-99.240;2022-09-30T04:27:56;78033.75;;;25.19
73673;BMP280;61972;19.480;-99.240;2022-09-30T04:30:22;78032.63;;;25.18
73673;BMP280;61972;19.480;-99.240;2022-09-30T04:32:48;78026.28;;;25.17
73673;BMP280;61972;19.480;-99.240;2022-09-30T04:35:14;78027.78;;;25.16
73673;BMP280;61972;19.480;-99.240;2022-09-30T04:37:52;78021.44;;;25.15
73673;BMP280;61972;19.480;-99.240;2022-09-30T04:40:18;78029.28;;;25.15
73673;BMP280;61972;19.480;-99.240;2022-09-30T04:43:00;78023.31;;;25.12
73673;BMP280;61972;19.480;-99.240;2022-09-30T04:45:50;78022.75;;;25.11
73673;BMP280;61972;19.480;-99.240;2022-09-30T04:48:41;78027.41;;;25.10
73673;BMP280;61972;19.480;-99.240;2022-09-30T04:51:27;78026.84;;;25.10
73673;BMP280;61972;19.480;-99.240;2022-09-30T04:53:54;78020.50;;;25.09
73673;BMP280;61972;19.480;-99.240;2022-09-30T04:56:21;78020.50;;;25.09
73673;BMP280;61972;19.480;-99.240;2022-09-30T04:58:56;78013.59;;;25.07
73673;BMP280;61972;19.480;-99.240;2022-09-30T05:01:39;78000.91;;;25.05
73673;BMP280;61972;19.480;-99.240;2022-09-30T05:04:11;78006.13;;;25.05
73673;BMP280;61972;19.480;-99.240;2022-09-30T05:06:37;78000.38;;;25.05
73673;BMP280;61972;19.480;-99.240;2022-09-30T05:09:10;78004.47;;;25.04
73673;BMP280;61972;19.480;-99.240;2022-09-30T05:11:39;78003.88;;;25.03
73673;BMP280;61972;19.480;-99.240;2022-09-30T05:14:06;78000.16;;;25.02
73673;BMP280;61972;19.480;-99.240;2022-09-30T05:16:35;78003.72;;;25.01
73673;BMP280;61972;19.480;-99.240;2022-09-30T05:19:02;78014.72;;;25.01
73673;BMP280;61972;19.480;-99.240;2022-09-30T05:21:28;78006.34;;;25.01
73673;BMP280;61972;19.480;-99.240;2022-09-30T05:23:55;77999.97;;;25.00
73673;BMP280;61972;19.480;-99.240;2022-09-30T05:26:29;78004.06;;;24.99
73673;BMP280;61972;19.480;-99.240;2022-09-30T05:28:58;77998.28;;;24.98
73673;BMP280;61972;19.480;-99.240;2022-09-30T05:31:24;78000.91;;;24.98
73673;BMP280;61972;19.480;-99.240;2022-09-30T05:33:54;77999.81;;;24.97
73673;BMP280;61972;19.480;-99.240;2022-09-30T05:36:33;78001.84;;;24.97
73673;BMP280;61972;19.480;-99.240;2022-09-30T05:39:18;77998.69;;;24.96
73673;BMP280;61972;19.480;-99.240;2022-09-30T05:41:57;77988.59;;;24.94
73673;BMP280;61972;19.480;-99.240;2022-09-30T05:44:31;77989.13;;;24.95
73673;BMP280;61972;19.480;-99.240;2022-09-30T05:47:03;77995.91;;;24.94
73673;BMP280;61972;19.480;-99.240;2022-09-30T05:49:30;77997.94;;;24.93
73673;BMP280;61972;19.480;-99.240;2022-09-30T05:51:59;77992.16;;;24.92
73673;BMP280;61972;19.480;-99.240;2022-09-30T05:54:25;77985.22;;;24.91
73673;BMP280;61972;19.480;-99.240;2022-09-30T05:56:51;77984.69;;;24.90
73673;BMP280;61972;19.480;-99.240;2022-09-30T05:59:17;77986.72;;;24.90
73673;BMP280;61972;19.480;-99.240;2022-09-30T06:01:44;77977.22;;;24.88
73673;BMP280;61972;19.480;-99.240;2022-09-30T06:04:10;77983.00;;;24.89
73673;BMP280;61972;19.480;-99.240;2022-09-30T06:06:36;77971.41;;;24.88
73673;BMP280;61972;19.480;-99.240;2022-09-30T06:09:03;77970.31;;;24.87
73673;BMP280;61972;19.480;-99.240;2022-09-30T06:11:29;77972.38;;;24.86
73673;BMP280;61972;19.480;-99.240;2022-09-30T06:13:56;77964.34;;;24.84
73673;BMP280;61972;19.480;-99.240;2022-09-30T06:16:22;77961.72;;;24.84
73673;BMP280;61972;19.480;-99.240;2022-09-30T06:18:49;77968.47;;;24.83
73673;BMP280;61972;19.480;-99.240;2022-09-30T06:21:16;77959.50;;;24.82
73673;BMP280;61972;19.480;-99.240;2022-09-30T06:23:42;77964.16;;;24.81
73673;BMP280;61972;19.480;-99.240;2022-09-30T06:26:11;77958.38;;;24.81
73673;BMP280;61972;19.480;-99.240;2022-09-30T06:28:39;77962.47;;;24.80
73673;BMP280;61972;19.480;-99.240;2022-09-30T06:31:05;77950.91;;;24.79
73673;BMP280;61972;19.480;-99.240;2022-09-30T06:33:32;77952.41;;;24.78
73673;BMP280;61972;19.480;-99.240;2022-09-30T06:36:01;77952.78;;;24.76
73673;BMP280;61972;19.480;-99.240;2022-09-30T06:38:33;77946.41;;;24.74
73673;BMP280;61972;19.480;-99.240;2022-09-30T06:41:05;77946.81;;;24.72
73673;BMP280;61972;19.480;-99.240;2022-09-30T06:43:31;77942.50;;;24.71
73673;BMP280;61972;19.480;-99.240;2022-09-30T06:45:57;77941.97;;;24.70
73673;BMP280;61972;19.480;-99.240;2022-09-30T06:48:23;77938.78;;;24.70
73673;BMP280;61972;19.480;-99.240;2022-09-30T06:50:50;77935.63;;;24.69
73673;BMP280;61972;19.480;-99.240;2022-09-30T06:53:20;77934.50;;;24.68
73673;BMP280;61972;19.480;-99.240;2022-09-30T06:55:46;77928.53;;;24.65
73673;BMP280;61972;19.480;-99.240;2022-09-30T06:58:14;77922.19;;;24.64
73673;BMP280;61972;19.480;-99.240;2022-09-30T07:00:40;77922.19;;;24.64
73673;BMP280;61972;19.480;-99.240;2022-09-30T07:03:06;77926.28;;;24.63
73673;BMP280;61972;19.480;-99.240;2022-09-30T07:05:40;77923.13;;;24.63
73673;BMP280;61972;19.480;-99.240;2022-09-30T07:08:06;77924.63;;;24.62
73673;BMP280;61972;19.480;-99.240;2022-09-30T07:10:34;77916.22;;;24.61
73673;BMP280;61972;19.480;-99.240;2022-09-30T07:13:09;77909.31;;;24.60
73673;BMP280;61972;19.480;-99.240;2022-09-30T07:15:35;77915.50;;;24.58
73673;BMP280;61972;19.480;-99.240;2022-09-30T07:18:25;77911.75;;;24.57
73673;BMP280;61972;19.480;-99.240;2022-09-30T07:20:54;77917.34;;;24.55
73673;BMP280;61972;19.480;-99.240;2022-09-30T07:23:20;77910.06;;;24.55
73673;BMP280;61972;19.480;-99.240;2022-09-30T07:25:55;77910.44;;;24.53
73673;BMP280;61972;19.480;-99.240;2022-09-30T07:28:23;77917.72;;;24.53
73673;BMP280;61972;19.480;-99.240;2022-09-30T07:30:57;77916.59;;;24.52
73673;BMP280;61972;19.480;-99.240;2022-09-30T07:33:25;77921.81;;;24.52
73673;BMP280;61972;19.480;-99.240;2022-09-30T07:35:55;77918.47;;;24.49
73673;BMP280;61972;19.480;-99.240;2022-09-30T07:38:24;77915.84;;;24.49
73673;BMP280;61972;19.480;-99.240;2022-09-30T07:40:53;77917.31;;;24.48
73673;BMP280;61972;19.480;-99.240;2022-09-30T07:43:19;77915.13;;;24.46
73673;BMP280;61972;19.480;-99.240;2022-09-30T07:45:47;77912.88;;;24.44
73673;BMP280;61972;19.480;-99.240;2022-09-30T07:48:14;77912.88;;;24.44
73673;BMP280;61972;19.480;-99.240;2022-09-30T07:51:00;77910.63;;;24.42
73673;BMP280;61972;19.480;-99.240;2022-09-30T07:53:26;77911.00;;;24.40
73673;BMP280;61972;19.480;-99.240;2022-09-30T07:55:52;77911.94;;;24.38
73673;BMP280;61972;19.480;-99.240;2022-09-30T07:58:18;77908.75;;;24.37
73673;BMP280;61972;19.480;-99.240;2022-09-30T08:00:46;77902.44;;;24.36
73673;BMP280;61972;19.480;-99.240;2022-09-30T08:03:16;77908.03;;;24.34
73673;BMP280;61972;19.480;-99.240;2022-09-30T08:05:43;77903.19;;;24.32
73673;BMP280;61972;19.480;-99.240;2022-09-30T08:08:15;77909.53;;;24.33
73673;BMP280;61972;19.480;-99.240;2022-09-30T08:10:41;77899.47;;;24.31
73673;BMP280;61972;19.480;-99.240;2022-09-30T08:13:08;77900.94;;;24.30
73673;BMP280;61972;19.480;-99.240;2022-09-30T08:15:34;77900.19;;;24.27
73673;BMP280;61972;19.480;-99.240;2022-09-30T08:18:01;77895.94;;;24.26
73673;BMP280;61972;19.480;-99.240;2022-09-30T08:20:30;77891.63;;;24.24
73673;BMP280;61972;19.480;-99.240;2022-09-30T08:22:56;77890.50;;;24.23
73673;BMP280;61972;19.480;-99.240;2022-09-30T08:25:23;77888.84;;;24.22
73673;BMP280;61972;19.480;-99.240;2022-09-30T08:27:49;77885.09;;;24.21
73673;BMP280;61972;19.480;-99.240;2022-09-30T08:30:16;77887.16;;;24.20
73673;BMP280;61972;19.480;-99.240;2022-09-30T08:32:42;77882.84;;;24.18
73673;BMP280;61972;19.480;-99.240;2022-09-30T08:35:14;77881.75;;;24.17
73673;BMP280;61972;19.480;-99.240;2022-09-30T08:37:58;77881.56;;;24.15
73673;BMP280;61972;19.480;-99.240;2022-09-30T08:40:31;77881.00;;;24.14
73673;BMP280;61972;19.480;-99.240;2022-09-30T08:43:26;77879.31;;;24.13
73673;BMP280;61972;19.480;-99.240;2022-09-30T08:46:08;77878.56;;;24.10
73673;BMP280;61972;19.480;-99.240;2022-09-30T08:51:47;77870.75;;;24.10
73673;BMP280;61972;19.480;-99.240;2022-09-30T08:54:20;77864.41;;;24.09
73673;BMP280;61972;19.480;-99.240;2022-09-30T08:56:47;77864.78;;;24.07
73673;BMP280;61972;19.480;-99.240;2022-09-30T08:59:31;77852.66;;;24.05
73673;BMP280;61972;19.480;-99.240;2022-09-30T09:02:20;77856.75;;;24.04
73673;BMP280;61972;19.480;-99.240;2022-09-30T09:04:49;77864.03;;;24.04
73673;BMP280;61972;19.480;-99.240;2022-09-30T09:07:38;77859.94;;;24.05
73673;BMP280;61972;19.480;-99.240;2022-09-30T09:10:18;77859.94;;;24.05
73673;BMP280;61972;19.480;-99.240;2022-09-30T09:13:07;77855.84;;;24.06
73673;BMP280;61972;19.480;-99.240;2022-09-30T09:15:46;77853.41;;;24.08
73673;BMP280;61972;19.480;-99.240;2022-09-30T09:21:26;77853.94;;;24.09
73673;BMP280;61972;19.480;-99.240;2022-09-30T09:23:59;77851.91;;;24.09
73673;BMP280;61972;19.480;-99.240;2022-09-30T09:26:29;77848.72;;;24.09
73673;BMP280;61972;19.480;-99.240;2022-09-30T09:31:47;77842.97;;;24.08
73673;BMP280;61972;19.480;-99.240;2022-09-30T09:34:13;77852.84;;;24.08
73673;BMP280;61972;19.480;-99.240;2022-09-30T09:42:39;77857.50;;;24.07
73673;BMP280;61972;19.480;-99.240;2022-09-30T09:45:35;77854.72;;;24.05
73673;BMP280;61972;19.480;-99.240;2022-09-30T09:48:07;77854.13;;;24.04
73673;BMP280;61972;19.480;-99.240;2022-09-30T09:53:34;77854.53;;;24.02
73673;BMP280;61972;19.480;-99.240;2022-09-30T09:56:12;77856.56;;;24.02
73673;BMP280;61972;19.480;-99.240;2022-09-30T09:59:08;77854.91;;;24.00
73673;BMP280;61972;19.480;-99.240;2022-09-30T10:01:41;77851.75;;;23.99
73673;BMP280;61972;19.480;-99.240;2022-09-30T10:04:11;77854.34;;;23.99
73673;BMP280;61972;19.480;-99.240;2022-09-30T10:07:11;77855.84;;;23.98
73673;BMP280;61972;19.480;-99.240;2022-09-30T10:09:39;77858.44;;;23.98
73673;BMP280;61972;19.480;-99.240;2022-09-30T10:14:33;77856.19;;;23.96
73673;BMP280;61972;19.480;-99.240;2022-09-30T10:17:04;77859.38;;;23.97
73673;BMP280;61972;19.480;-99.240;2022-09-30T10:19:33;77864.00;;;23.96
73673;BMP280;61972;19.480;-99.240;2022-09-30T10:24:38;77858.63;;;23.94
73673;BMP280;61972;19.480;-99.240;2022-09-30T10:27:31;77855.84;;;23.91
73673;BMP280;61972;19.480;-99.240;2022-09-30T10:29:58;77851.75;;;23.92
73673;BMP280;61972;19.480;-99.240;2022-09-30T10:32:27;77852.09;;;23.90
73673;BMP280;61972;19.480;-99.240;2022-09-30T10:35:06;77850.44;;;23.89
73673;BMP280;61972;19.480;-99.240;2022-09-30T10:37:49;77847.81;;;23.89
73673;BMP280;61972;19.480;-99.240;2022-09-30T10:40:28;77849.88;;;23.88
73673;BMP280;61972;19.480;-99.240;2022-09-30T10:42:55;77851.34;;;23.87
73673;BMP280;61972;19.480;-99.240;2022-09-30T10:45:25;77850.22;;;23.86
73673;BMP280;61972;19.480;-99.240;2022-09-30T10:47:57;77850.22;;;23.86
73673;BMP280;61972;19.480;-99.240;2022-09-30T10:50:27;77847.06;;;23.86
73673;BMP280;61972;19.480;-99.240;2022-09-30T10:57:54;77846.88;;;23.83
73673;BMP280;61972;19.480;-99.240;2022-09-30T11:00:24;77853.56;;;23.82
73673;BMP280;61972;19.480;-99.240;2022-09-30T11:05:23;77852.50;;;23.81
73673;BMP280;61972;19.480;-99.240;2022-09-30T11:08:18;77853.78;;;23.77
73673;BMP280;61972;19.480;-99.240;2022-09-30T11:10:58;77851.72;;;23.78
73673;BMP280;61972;19.480;-99.240;2022-09-30T11:13:40;77856.38;;;23.77
73673;BMP280;61972;19.480;-99.240;2022-09-30T11:18:48;77850.63;;;23.77
73673;BMP280;61972;19.480;-99.240;2022-09-30T11:23:52;77852.09;;;23.76
73673;BMP280;61972;19.480;-99.240;2022-09-30T11:29:21;77850.22;;;23.72
73673;BMP280;61972;19.480;-99.240;2022-09-30T11:32:04;77843.88;;;23.71
73673;BMP280;61972;19.480;-99.240;2022-09-30T11:34:42;77854.31;;;23.71
73673;BMP280;61972;19.480;-99.240;2022-09-30T11:40:13;77855.44;;;23.72
73673;BMP280;61972;19.480;-99.240;2022-09-30T11:51:22;77845.75;;;23.68
73673;BMP280;61972;19.480;-99.240;2022-09-30T11:54:10;77861.41;;;23.68
73673;BMP280;61972;19.480;-99.240;2022-09-30T11:56:43;77844.63;;;23.67
73673;BMP280;61972;19.480;-99.240;2022-09-30T12:02:03;77852.28;;;23.64
73673;BMP280;61972;19.480;-99.240;2022-09-30T12:04:41;77846.50;;;23.63
73673;BMP280;61972;19.480;-99.240;2022-09-30T12:09:45;77851.13;;;23.63
73673;BMP280;61972;19.480;-99.240;2022-09-30T12:12:17;77848.00;;;23.62
73673;BMP280;61972;19.480;-99.240;2022-09-30T12:17:40;77848.34;;;23.60
73673;BMP280;61972;19.480;-99.240;2022-09-30T12:22:45;77850.97;;;23.60
73673;BMP280;61972;19.480;-99.240;2022-09-30T12:25:25;77850.97;;;23.60
73673;BMP280;61972;19.480;-99.240;2022-09-30T12:48:04;77860.81;;;23.53
73673;BMP280;61972;19.480;-99.240;2022-09-30T12:50:39;77857.66;;;23.52
73673;BMP280;61972;19.480;-99.240;2022-09-30T12:53:17;77862.88;;;23.52
73673;BMP280;61972;19.480;-99.240;2022-09-30T12:55:44;77865.50;;;23.52
73673;BMP280;61972;19.480;-99.240;2022-09-30T12:58:21;77863.25;;;23.50
73673;BMP280;61972;19.480;-99.240;2022-09-30T13:01:14;77857.47;;;23.50
73673;BMP280;61972;19.480;-99.240;2022-09-30T13:06:20;77864.75;;;23.49
73673;BMP280;61972;19.480;-99.240;2022-09-30T13:09:33;77867.34;;;23.49
73673;BMP280;61972;19.480;-99.240;2022-09-30T13:11:36;77867.91;;;23.50
73673;BMP280;61972;19.480;-99.240;2022-09-30T13:19:45;77860.81;;;23.45
73673;BMP280;61972;19.480;-99.240;2022-09-30T13:27:51;77867.91;;;23.42
73673;BMP280;61972;19.480;-99.240;2022-09-30T13:32:48;77871.06;;;23.43
73673;BMP280;61972;19.480;-99.240;2022-09-30T13:43:56;77864.16;;;23.41
73673;BMP280;61972;19.480;-99.240;2022-09-30T13:46:45;77874.59;;;23.41
73673;BMP280;61972;19.480;-99.240;2022-09-30T13:49:21;77876.66;;;23.41
73673;BMP280;61972;19.480;-99.240;2022-09-30T13:51:50;77874.03;;;23.41
73673;BMP280;61972;19.480;-99.240;2022-09-30T13:56:55;77879.25;;;23.41
73673;BMP280;61972;19.480;-99.240;2022-09-30T13:59:44;77883.38;;;23.40
73673;BMP280;61972;19.480;-99.240;2022-09-30T14:02:28;77875.91;;;23.38
73673;BMP280;61972;19.480;-99.240;2022-09-30T14:19:11;77877.94;;;23.30
73673;BMP280;61972;19.480;-99.240;2022-09-30T14:21:55;77877.75;;;23.27
73673;BMP280;61972;19.480;-99.240;2022-09-30T14:24:24;77876.25;;;23.28
73673;BMP280;61972;19.480;-99.240;2022-09-30T14:33:08;77879.41;;;23.22
73673;BMP280;61972;19.480;-99.240;2022-09-30T14:35:36;77884.03;;;23.21
73673;BMP280;61972;19.480;-99.240;2022-09-30T14:38:26;77873.97;;;23.19
73673;BMP280;61972;19.480;-99.240;2022-09-30T14:41:00;77879.53;;;23.17
73673;BMP280;61972;19.480;-99.240;2022-09-30T14:43:31;77885.34;;;23.18
73673;BMP280;61972;19.480;-99.240;2022-09-30T14:46:34;77884.75;;;23.17
73673;BMP280;61972;19.480;-99.240;2022-09-30T14:49:05;77888.88;;;23.16
73673;BMP280;61972;19.480;-99.240;2022-09-30T14:51:42;77899.28;;;23.16
73673;BMP280;61972;19.480;-99.240;2022-09-30T14:54:18;77891.28;;;23.14
73673;BMP280;61972;19.480;-99.240;2022-09-30T14:56:49;77890.75;;;23.13
73673;BMP280;61972;19.480;-99.240;2022-09-30T14:59:21;77894.25;;;23.12
73673;BMP280;61972;19.480;-99.240;2022-09-30T15:02:13;77893.13;;;23.10
73673;BMP280;61972;19.480;-99.240;2022-09-30T15:04:50;77893.13;;;23.10
73673;BMP280;61972;19.480;-99.240;2022-09-30T15:07:22;77900.38;;;23.10
73673;BMP280;61972;19.480;-99.240;2022-09-30T15:09:48;77896.66;;;23.09
73673;BMP280;61972;19.480;-99.240;2022-09-30T15:12:18;77890.34;;;23.08
73673;BMP280;61972;19.480;-99.240;2022-09-30T15:14:53;77895.53;;;23.08
73673;BMP280;61972;19.480;-99.240;2022-09-30T15:17:24;77891.81;;;23.07
73673;BMP280;61972;19.480;-99.240;2022-09-30T15:19:55;77892.94;;;23.08
73673;BMP280;61972;19.480;-99.240;2022-09-30T15:22:23;77893.88;;;23.06
73673;BMP280;61972;19.480;-99.240;2022-09-30T15:24:52;77899.63;;;23.07
73673;BMP280;61972;19.480;-99.240;2022-09-30T15:27:25;77893.28;;;23.06
73673;BMP280;61972;19.480;-99.240;2022-09-30T15:29:57;77893.28;;;23.06
73673;BMP280;61972;19.480;-99.240;2022-09-30T15:32:26;77884.00;;;23.07
73673;BMP280;61972;19.480;-99.240;2022-09-30T15:34:54;77892.38;;;23.07
73673;BMP280;61972;19.480;-99.240;2022-09-30T15:37:27;77890.91;;;23.08
73673;BMP280;61972;19.480;-99.240;2022-09-30T15:39:58;77894.25;;;23.12
73673;BMP280;61972;19.480;-99.240;2022-09-30T15:47:58;77883.28;;;23.11
73673;BMP280;61972;19.480;-99.240;2022-09-30T15:50:47;77883.28;;;23.11
73673;BMP280;61972;19.480;-99.240;2022-09-30T15:58:41;77872.84;;;23.11
73673;BMP280;61972;19.480;-99.240;2022-09-30T16:01:41;77878.06;;;23.11
73673;BMP280;61972;19.480;-99.240;2022-09-30T16:06:56;77871.72;;;23.10
73673;BMP280;61972;19.480;-99.240;2022-09-30T16:09:30;77867.63;;;23.11
73673;BMP280;61972;19.480;-99.240;2022-09-30T16:12:08;77864.69;;;23.13
73673;BMP280;61972;19.480;-99.240;2022-09-30T16:14:48;77864.09;;;23.13
73673;BMP280;61972;19.480;-99.240;2022-09-30T16:17:34;77865.22;;;23.14
73673;BMP280;61972;19.480;-99.240;2022-09-30T16:20:26;77859.47;;;23.13
73673;BMP280;61972;19.480;-99.240;2022-09-30T16:22:54;77864.84;;;23.16
73673;BMP280;61972;19.480;-99.240;2022-09-30T16:25:43;77859.09;;;23.15
73673;BMP280;61972;19.480;-99.240;2022-09-30T16:28:25;77858.69;;;23.17
73673;BMP280;61972;19.480;-99.240;2022-09-30T16:34:26;77855.19;;;23.19
73673;BMP280;61972;19.480;-99.240;2022-09-30T16:37:10;77855.75;;;23.19
73673;BMP280;61972;19.480;-99.240;2022-09-30T16:39:37;77849.03;;;23.20
73673;BMP280;61972;19.480;-99.240;2022-09-30T16:42:19;77851.28;;;23.22
73673;BMP280;61972;19.480;-99.240;2022-09-30T16:44:51;77855.56;;;23.24
73673;BMP280;61972;19.480;-99.240;2022-09-30T16:47:17;77846.25;;;23.25
73673;BMP280;61972;19.480;-99.240;2022-09-30T16:49:46;77845.34;;;23.26
73673;BMP280;61972;19.480;-99.240;2022-09-30T16:52:13;77843.84;;;23.27
73673;BMP280;61972;19.480;-99.240;2022-09-30T16:54:40;77830.44;;;23.30
73673;BMP280;61972;19.480;-99.240;2022-09-30T16:57:13;77837.91;;;23.32
73673;BMP280;61972;19.480;-99.240;2022-09-30T16:59:43;77839.56;;;23.33
73673;BMP280;61972;19.480;-99.240;2022-09-30T17:02:12;77837.16;;;23.36
73673;BMP280;61972;19.480;-99.240;2022-09-30T17:04:39;77829.88;;;23.36
73673;BMP280;61972;19.480;-99.240;2022-09-30T17:07:10;77825.22;;;23.37
73673;BMP280;61972;19.480;-99.240;2022-09-30T17:09:36;77823.19;;;23.37
73673;BMP280;61972;19.480;-99.240;2022-09-30T17:12:02;77811.28;;;23.38
73673;BMP280;61972;19.480;-99.240;2022-09-30T17:14:30;77815.00;;;23.39
73673;BMP280;61972;19.480;-99.240;2022-09-30T17:17:00;77803.06;;;23.40
73673;BMP280;61972;19.480;-99.240;2022-09-30T17:19:26;77810.38;;;23.40
73673;BMP280;61972;19.480;-99.240;2022-09-30T17:22:07;77812.59;;;23.42
73673;BMP280;61972;19.480;-99.240;2022-09-30T17:24:36;77802.72;;;23.42
73673;BMP280;61972;19.480;-99.240;2022-09-30T17:27:10;77801.75;;;23.44
73673;BMP280;61972;19.480;-99.240;2022-09-30T17:29:36;77799.16;;;23.44
73673;BMP280;61972;19.480;-99.240;2022-09-30T17:32:04;77797.31;;;23.47
73673;BMP280;61972;19.480;-99.240;2022-09-30T17:34:38;77794.34;;;23.49